Time;durP1;ratioP1;P1;durP2;ratioP2;P2;SDS_P1;SDS_P2;PMS_P1;PMS_P2;Temp;Humidity;BMP_temperature;BMP_pressure;BME280_temperature;BME280_humidity;BME280_pressure;Samples;Min_cycle;Max_cycle;Signal;HPM_P1;HPM_P2
2022/02/27 00:00:32;;;;;;;16.48;4.90;;;3.60;99.90;;;;;;5028629;28;20251;-85
2022/02/27 00:02:59;;;;;;;11.90;4.45;;;3.80;99.90;;;;;;5020702;28;20581;-85
2022/02/27 00:05:26;;;;;;;10.32;4.03;;;3.70;99.90;;;;;;5020605;28;20204;-85
2022/02/27 00:07:53;;;;;;;10.88;3.67;;;3.50;99.90;;;;;;5020418;28;20287;-85
2022/02/27 00:10:22;;;;;;;10.73;4.05;;;3.50;99.90;;;;;;5021313;28;20322;-85
2022/02/27 00:12:49;;;;;;;8.80;3.85;;;3.70;99.90;;;;;;5023731;28;20232;-85
2022/02/27 00:15:16;;;;;;;12.55;4.38;;;3.50;99.90;;;;;;5021072;28;20216;-86
2022/02/27 00:17:43;;;;;;;12.15;3.45;;;3.50;99.90;;;;;;5020375;28;20232;-85
2022/02/27 00:20:12;;;;;;;7.50;3.90;;;3.50;99.90;;;;;;5019517;28;20228;-84
2022/02/27 00:22:39;;;;;;;9.90;4.63;;;3.30;99.90;;;;;;5018652;28;20234;-84
2022/02/27 00:25:08;;;;;;;12.05;4.20;;;3.30;99.90;;;;;;5019775;28;20263;-84
2022/02/27 00:27:38;;;;;;;8.15;3.90;;;3.40;99.90;;;;;;5018959;28;20233;-84
2022/02/27 00:30:07;;;;;;;7.93;3.38;;;3.20;99.90;;;;;;5019292;28;20232;-84
2022/02/27 00:32:34;;;;;;;16.48;5.22;;;3.50;99.90;;;;;;5019105;28;20212;-84
2022/02/27 00:35:01;;;;;;;9.90;3.70;;;3.40;99.90;;;;;;5025828;28;20660;-84
2022/02/27 00:37:28;;;;;;;11.77;3.88;;;3.50;99.90;;;;;;5018616;28;20772;-85
2022/02/27 00:39:55;;;;;;;12.55;4.10;;;3.50;99.90;;;;;;5019625;28;20211;-85
2022/02/27 00:42:22;;;;;;;10.20;4.07;;;3.30;99.90;;;;;;5019082;28;20291;-84
2022/02/27 00:44:50;;;;;;;6.15;3.42;;;3.30;99.90;;;;;;5019629;28;20668;-85
2022/02/27 00:47:17;;;;;;;8.82;3.75;;;3.40;99.90;;;;;;5018968;28;20204;-84
2022/02/27 00:49:44;;;;;;;14.90;4.50;;;3.30;99.90;;;;;;5018020;28;20208;-85
2022/02/27 00:52:11;;;;;;;12.27;4.30;;;3.30;99.90;;;;;;4981451;28;1101212;-83
2022/02/27 00:54:38;;;;;;;7.72;3.88;;;3.20;99.90;;;;;;5023918;28;20219;-84
2022/02/27 00:57:05;;;;;;;12.38;4.28;;;3.30;99.90;;;;;;5018574;28;20317;-84
2022/02/27 00:59:32;;;;;;;8.80;3.88;;;3.30;99.90;;;;;;5022960;28;20681;-85
2022/02/27 01:02:01;;;;;;;12.63;4.90;;;3.20;99.90;;;;;;5021196;28;20335;-84
2022/02/27 01:04:28;;;;;;;11.27;5.05;;;3.10;99.90;;;;;;5022039;28;20721;-85
2022/02/27 01:06:55;;;;;;;8.57;3.65;;;3.20;99.90;;;;;;5021705;28;20571;-85
2022/02/27 01:09:21;;;;;;;13.52;3.97;;;3.30;99.90;;;;;;5021369;28;20748;-85
2022/02/27 01:11:48;;;;;;;16.20;3.65;;;3.20;99.90;;;;;;5026005;28;20302;-86
2022/02/27 01:14:15;;;;;;;8.77;4.60;;;3.20;99.90;;;;;;5039402;28;20188;-86
2022/02/27 01:16:42;;;;;;;7.57;3.60;;;3.20;99.90;;;;;;5035746;28;20204;-85
2022/02/27 01:19:10;;;;;;;11.30;3.88;;;3.10;99.90;;;;;;5025239;28;20227;-85
2022/02/27 01:21:38;;;;;;;8.35;3.38;;;3.00;99.90;;;;;;5024700;28;20239;-85
2022/02/27 01:24:06;;;;;;;7.88;3.60;;;3.00;99.90;;;;;;5038190;28;20234;-86
2022/02/27 01:26:33;;;;;;;6.88;3.40;;;3.10;99.90;;;;;;5035403;28;20234;-85
2022/02/27 01:29:01;;;;;;;10.73;3.60;;;3.00;99.90;;;;;;5024525;28;20238;-85
2022/02/27 01:31:28;;;;;;;6.47;3.30;;;2.90;99.90;;;;;;5023726;28;20310;-85
2022/02/27 01:33:55;;;;;;;9.18;4.40;;;3.10;99.90;;;;;;5022968;28;20611;-85
2022/02/27 01:36:23;;;;;;;8.98;3.30;;;3.00;99.90;;;;;;5027041;28;20235;-85
2022/02/27 01:38:50;;;;;;;7.47;3.50;;;3.00;99.90;;;;;;5027792;28;20250;-85
2022/02/27 01:41:17;;;;;;;11.68;3.92;;;2.90;99.90;;;;;;5027405;28;20311;-85
2022/02/27 01:43:44;;;;;;;10.95;4.50;;;3.10;99.90;;;;;;5028095;28;20219;-85
2022/02/27 01:46:11;;;;;;;11.05;4.10;;;3.10;99.90;;;;;;5027352;28;20250;-85
2022/02/27 01:48:37;;;;;;;10.68;4.05;;;3.10;99.90;;;;;;5022815;28;20302;-85
2022/02/27 01:51:05;;;;;;;9.77;4.00;;;2.90;99.90;;;;;;5021592;28;20235;-85
2022/02/27 01:53:34;;;;;;;10.80;3.78;;;2.80;99.90;;;;;;5021615;28;20200;-85
2022/02/27 01:56:01;;;;;;;8.55;4.05;;;2.70;99.90;;;;;;5023038;28;20585;-85
2022/02/27 01:58:28;;;;;;;9.80;3.38;;;2.80;99.90;;;;;;5022501;28;20230;-85
2022/02/27 02:00:57;;;;;;;9.38;3.90;;;2.60;99.90;;;;;;5021982;28;20248;-85
2022/02/27 02:03:24;;;;;;;11.30;3.88;;;2.80;99.90;;;;;;5021875;28;20323;-85
2022/02/27 02:05:51;;;;;;;9.95;3.80;;;2.60;99.90;;;;;;5022391;28;20290;-85
2022/02/27 02:08:18;;;;;;;14.73;5.35;;;2.80;99.90;;;;;;5020748;28;20204;-85
2022/02/27 02:10:47;;;;;;;11.18;4.57;;;2.80;99.90;;;;;;5022944;28;20318;-85
2022/02/27 02:13:14;;;;;;;8.98;3.70;;;2.80;99.90;;;;;;5022310;28;20212;-85
2022/02/27 02:15:41;;;;;;;10.52;4.30;;;2.60;99.90;;;;;;5022697;28;20206;-85
2022/02/27 02:18:08;;;;;;;8.57;4.05;;;2.60;99.90;;;;;;5022077;28;20219;-85
2022/02/27 02:20:37;;;;;;;11.73;4.70;;;2.60;99.90;;;;;;5022386;28;20334;-85
2022/02/27 02:23:04;;;;;;;7.78;3.70;;;2.60;99.90;;;;;;5023372;28;20196;-85
2022/02/27 02:25:31;;;;;;;8.95;4.05;;;2.50;99.90;;;;;;5022307;28;20673;-84
2022/02/27 02:27:58;;;;;;;14.02;3.78;;;2.60;99.90;;;;;;5022162;28;20648;-85
2022/02/27 02:30:25;;;;;;;9.23;4.65;;;2.70;99.90;;;;;;5022665;28;20338;-85
2022/02/27 02:32:55;;;;;;;12.52;4.50;;;2.50;99.90;;;;;;5022199;28;20207;-85
2022/02/27 02:35:23;;;;;;;11.65;4.00;;;2.50;99.90;;;;;;5022271;28;20298;-84
2022/02/27 02:37:51;;;;;;;7.57;3.47;;;2.50;99.90;;;;;;5021401;28;20230;-85
2022/02/27 02:40:19;;;;;;;12.52;4.68;;;2.50;99.90;;;;;;5021937;28;20228;-85
2022/02/27 02:42:47;;;;;;;17.55;4.28;;;2.60;99.90;;;;;;5021433;28;20208;-85
2022/02/27 02:45:15;;;;;;;10.70;3.80;;;2.60;99.90;;;;;;5022094;28;20204;-85
2022/02/27 02:47:43;;;;;;;10.35;4.10;;;2.30;99.90;;;;;;5033493;28;20191;-85
2022/02/27 02:50:12;;;;;;;8.43;3.35;;;2.40;99.90;;;;;;5048667;23;20254;-85
2022/02/27 02:52:39;;;;;;;6.47;3.20;;;2.40;99.90;;;;;;5045211;28;20215;-86
2022/02/27 02:55:11;;;;;;;8.65;3.67;;;2.60;99.90;;;;;;5045652;28;20203;-87
2022/02/27 02:57:38;;;;;;;12.45;5.70;;;2.50;99.90;;;;;;5046871;28;20222;-86
2022/02/27 03:00:06;;;;;;;15.55;4.60;;;2.40;99.90;;;;;;5049841;28;20274;-87
2022/02/27 03:02:33;;;;;;;8.90;4.45;;;2.40;99.90;;;;;;5047320;28;20276;-85
2022/02/27 03:05:00;;;;;;;13.93;3.97;;;2.60;99.90;;;;;;5047114;28;20238;-88
2022/02/27 03:07:27;;;;;;;8.65;4.00;;;2.40;99.90;;;;;;5049101;28;20742;-88
2022/02/27 03:09:54;;;;;;;10.50;3.80;;;2.40;99.90;;;;;;5051332;28;20273;-88
2022/02/27 03:12:23;;;;;;;8.65;4.15;;;2.30;99.90;;;;;;5052258;28;20218;-86
2022/02/27 03:14:50;;;;;;;10.40;4.25;;;2.30;99.90;;;;;;5058244;28;20197;-87
2022/02/27 03:17:17;;;;;;;7.13;3.70;;;2.40;99.90;;;;;;5058234;28;20225;-85
2022/02/27 03:19:44;;;;;;;14.68;4.28;;;2.20;99.90;;;;;;5056738;28;20203;-85
2022/02/27 03:22:11;;;;;;;10.27;3.72;;;2.20;99.90;;;;;;5057714;28;20222;-84
2022/02/27 03:24:37;;;;;;;8.75;3.80;;;2.10;99.90;;;;;;5055731;28;20234;-86
2022/02/27 03:27:05;;;;;;;9.00;3.95;;;2.10;99.90;;;;;;5047762;28;20218;-87
2022/02/27 03:29:33;;;;;;;12.45;4.10;;;2.20;99.90;;;;;;5045866;28;20250;-88
2022/02/27 03:32:00;;;;;;;12.73;4.15;;;2.10;99.90;;;;;;5048543;28;20242;-87
2022/02/27 03:34:27;;;;;;;9.60;3.88;;;2.30;99.90;;;;;;5048938;28;20302;-88
2022/02/27 03:36:54;;;;;;;11.88;3.42;;;2.40;99.90;;;;;;5044831;28;20203;-88
2022/02/27 03:39:21;;;;;;;14.02;3.90;;;2.20;99.90;;;;;;5044242;28;20246;-87
2022/02/27 03:41:48;;;;;;;9.82;3.17;;;2.10;99.90;;;;;;5044493;28;20247;-88
2022/02/27 03:44:15;;;;;;;8.82;3.78;;;2.20;99.90;;;;;;5046806;28;20241;-86
2022/02/27 03:46:43;;;;;;;8.00;3.40;;;2.40;99.90;;;;;;5045721;28;20238;-86
2022/02/27 03:49:10;;;;;;;8.68;4.10;;;2.00;99.90;;;;;;5045343;28;20199;-86
2022/02/27 03:51:37;;;;;;;7.57;3.63;;;2.20;99.90;;;;;;5044169;28;20234;-87
2022/02/27 03:54:05;;;;;;;8.77;3.67;;;2.20;99.90;;;;;;5043626;28;20269;-87
2022/02/27 03:56:32;;;;;;;10.52;4.00;;;2.20;99.90;;;;;;5043000;28;20290;-86
2022/02/27 03:58:59;;;;;;;8.63;4.32;;;2.20;99.90;;;;;;5042335;28;20326;-87
2022/02/27 04:01:26;;;;;;;10.90;4.07;;;2.10;99.90;;;;;;5044181;28;20246;-87
2022/02/27 04:03:55;;;;;;;9.95;3.45;;;2.10;99.90;;;;;;5043444;28;20235;-88
2022/02/27 04:06:21;;;;;;;9.18;3.50;;;2.10;99.90;;;;;;5044020;28;20220;-88
2022/02/27 04:08:48;;;;;;;15.07;4.15;;;2.00;99.90;;;;;;5044736;28;20207;-87
2022/02/27 04:11:15;;;;;;;11.13;4.22;;;2.00;99.90;;;;;;5048049;28;20265;-86
2022/02/27 04:13:42;;;;;;;11.00;3.63;;;2.10;99.90;;;;;;5053551;28;20203;-88
2022/02/27 04:16:09;;;;;;;13.18;4.13;;;2.10;99.90;;;;;;5055332;28;20229;-88
2022/02/27 04:18:36;;;;;;;9.40;3.83;;;2.00;99.90;;;;;;5052226;28;20233;-88
2022/02/27 04:21:04;;;;;;;8.70;3.85;;;2.00;99.90;;;;;;5046340;28;20237;-87
2022/02/27 04:23:31;;;;;;;8.82;3.60;;;2.10;99.90;;;;;;5046025;28;20226;-87
2022/02/27 04:25:58;;;;;;;10.55;3.70;;;2.30;99.90;;;;;;5047529;28;20203;-86
2022/02/27 04:28:25;;;;;;;15.75;3.92;;;2.20;99.90;;;;;;5046018;28;20248;-87
2022/02/27 04:30:51;;;;;;;9.85;3.58;;;2.20;99.90;;;;;;5043709;28;20214;-88
2022/02/27 04:33:18;;;;;;;11.77;4.53;;;2.10;99.90;;;;;;5046669;28;20211;-88
2022/02/27 04:35:45;;;;;;;11.73;3.38;;;1.80;99.90;;;;;;5047337;28;20731;-88
2022/02/27 04:38:13;;;;;;;8.07;4.43;;;2.00;99.90;;;;;;5054503;28;20202;-85
2022/02/27 04:40:40;;;;;;;9.77;3.92;;;2.00;99.90;;;;;;5054188;28;20282;-89
2022/02/27 04:43:07;;;;;;;9.30;4.00;;;1.90;99.90;;;;;;5048069;28;20270;-86
2022/02/27 04:45:34;;;;;;;14.10;5.07;;;1.80;99.90;;;;;;5048919;28;20210;-87
2022/02/27 04:48:01;;;;;;;7.70;3.75;;;1.80;99.90;;;;;;5048421;28;20270;-86
2022/02/27 04:50:28;;;;;;;10.52;4.38;;;1.80;99.90;;;;;;5047655;28;20237;-86
2022/02/27 04:52:55;;;;;;;7.45;3.30;;;1.70;99.90;;;;;;5047741;28;20221;-87
2022/02/27 04:55:24;;;;;;;6.60;3.60;;;2.00;99.90;;;;;;5047044;28;20264;-87
2022/02/27 04:57:50;;;;;;;9.23;3.92;;;2.00;99.90;;;;;;5054071;28;20215;-86
2022/02/27 05:00:18;;;;;;;7.35;3.83;;;1.80;99.90;;;;;;5049117;28;20234;-85
2022/02/27 05:02:45;;;;;;;8.43;3.97;;;1.80;99.90;;;;;;5050081;28;20230;-87
2022/02/27 05:05:12;;;;;;;7.05;3.80;;;1.90;99.90;;;;;;5049963;28;20211;-89
2022/02/27 05:07:38;;;;;;;11.60;4.60;;;1.70;99.90;;;;;;5046762;28;20207;-87
2022/02/27 05:10:08;;;;;;;9.38;4.10;;;1.90;99.90;;;;;;5050529;28;20221;-87
2022/02/27 05:12:37;;;;;;;11.02;4.05;;;1.90;99.90;;;;;;5049923;28;20199;-89
2022/02/27 05:15:05;;;;;;;8.93;4.40;;;2.00;99.90;;;;;;5052589;28;20309;-86
2022/02/27 05:17:32;;;;;;;10.60;4.60;;;1.80;99.90;;;;;;5049038;28;20226;-86
2022/02/27 05:19:59;;;;;;;11.68;4.10;;;1.70;99.90;;;;;;5047892;28;20257;-87
2022/02/27 05:22:26;;;;;;;9.27;3.75;;;1.60;99.90;;;;;;5050325;28;20309;-85
2022/02/27 05:24:53;;;;;;;7.53;4.30;;;1.60;99.90;;;;;;5050391;28;20649;-86
2022/02/27 05:27:20;;;;;;;13.82;5.32;;;1.70;99.90;;;;;;5051774;28;20211;-86
2022/02/27 05:29:48;;;;;;;10.43;4.07;;;1.50;99.90;;;;;;5049378;28;20237;-87
2022/02/27 05:32:15;;;;;;;11.68;4.43;;;1.80;99.90;;;;;;5046477;28;20802;-86
2022/02/27 05:34:42;;;;;;;11.70;4.35;;;1.70;99.90;;;;;;5047230;28;20745;-85
2022/02/27 05:37:09;;;;;;;6.75;4.40;;;1.50;99.90;;;;;;5052687;28;20210;-87
2022/02/27 05:39:36;;;;;;;9.98;4.22;;;1.50;99.90;;;;;;5048322;28;20249;-85
2022/02/27 05:42:03;;;;;;;11.55;4.60;;;1.80;99.90;;;;;;5050977;28;20238;-85
2022/02/27 05:44:30;;;;;;;17.88;4.70;;;1.50;99.90;;;;;;5048641;28;20214;-87
2022/02/27 05:46:58;;;;;;;7.78;3.88;;;1.40;99.90;;;;;;5047238;28;20235;-87
2022/02/27 05:49:25;;;;;;;7.53;4.63;;;1.80;99.90;;;;;;5046758;28;20213;-87
2022/02/27 05:51:52;;;;;;;8.82;4.20;;;1.70;99.90;;;;;;5046423;28;20246;-88
2022/02/27 05:54:19;;;;;;;11.68;4.32;;;1.70;99.90;;;;;;5049530;28;20241;-88
2022/02/27 05:56:46;;;;;;;11.13;5.15;;;1.70;99.90;;;;;;5049157;28;20213;-88
2022/02/27 05:59:12;;;;;;;12.63;4.38;;;1.70;99.90;;;;;;5059275;28;20222;-87
2022/02/27 06:01:39;;;;;;;10.82;5.10;;;1.50;99.90;;;;;;5058081;28;20213;-88
2022/02/27 06:04:07;;;;;;;11.02;4.40;;;1.70;99.90;;;;;;5053918;28;20206;-86
2022/02/27 06:06:34;;;;;;;17.25;5.03;;;1.60;99.90;;;;;;5059604;28;20190;-85
2022/02/27 06:09:01;;;;;;;12.00;4.68;;;1.50;99.90;;;;;;5049414;28;20207;-85
2022/02/27 06:11:28;;;;;;;13.00;4.90;;;1.50;99.90;;;;;;5047240;28;20722;-86
2022/02/27 06:13:55;;;;;;;11.50;4.75;;;1.60;99.90;;;;;;5049335;28;20270;-86
2022/02/27 06:16:21;;;;;;;12.55;4.72;;;1.60;99.90;;;;;;5049745;28;20215;-86
2022/02/27 06:18:48;;;;;;;8.48;4.28;;;1.30;99.90;;;;;;5047112;28;20298;-88
2022/02/27 06:21:17;;;;;;;11.75;5.25;;;1.40;99.90;;;;;;5046710;28;20294;-87
2022/02/27 06:23:43;;;;;;;10.38;5.13;;;1.30;99.90;;;;;;5047264;28;20218;-86
2022/02/27 06:26:10;;;;;;;7.55;4.00;;;1.40;99.90;;;;;;5048815;28;20636;-87
2022/02/27 06:28:37;;;;;;;11.95;4.30;;;1.60;99.90;;;;;;5048951;28;20274;-87
2022/02/27 06:31:04;;;;;;;14.00;4.78;;;1.40;99.90;;;;;;5047219;28;20269;-88
2022/02/27 06:33:31;;;;;;;11.00;5.05;;;1.40;99.90;;;;;;5044800;28;20239;-88
2022/02/27 06:35:58;;;;;;;13.00;4.40;;;1.70;99.90;;;;;;5044182;28;20267;-88
2022/02/27 06:38:26;;;;;;;9.50;4.68;;;1.40;99.90;;;;;;5047833;28;20373;-87
2022/02/27 06:40:53;;;;;;;10.52;3.80;;;1.50;99.90;;;;;;5048241;28;20309;-86
2022/02/27 06:43:20;;;;;;;10.52;4.78;;;1.50;99.90;;;;;;5051494;28;20202;-86
2022/02/27 06:45:47;;;;;;;11.75;5.28;;;1.60;99.90;;;;;;5048724;28;20210;-85
2022/02/27 06:48:14;;;;;;;16.50;4.75;;;1.50;99.90;;;;;;5047465;28;20203;-85
2022/02/27 06:50:43;;;;;;;8.13;4.40;;;1.50;99.90;;;;;;5045714;28;20302;-86
2022/02/27 06:53:11;;;;;;;12.07;4.80;;;1.70;99.90;;;;;;5044573;28;20294;-87
2022/02/27 06:55:39;;;;;;;12.75;5.18;;;1.60;99.90;;;;;;5044894;28;20618;-86
2022/02/27 06:58:06;;;;;;;13.68;5.25;;;1.50;99.90;;;;;;5045487;28;20203;-87
2022/02/27 07:00:33;;;;;;;9.88;5.25;;;1.60;99.90;;;;;;5045952;28;20245;-88
2022/02/27 07:03:00;;;;;;;8.27;4.20;;;1.50;99.90;;;;;;5045739;28;20217;-87
2022/02/27 07:05:26;;;;;;;12.77;5.60;;;1.60;99.90;;;;;;5044550;28;20225;-87
2022/02/27 07:07:53;;;;;;;10.65;5.05;;;1.30;99.90;;;;;;5053624;28;20236;-85
2022/02/27 07:10:20;;;;;;;13.57;5.60;;;1.40;99.90;;;;;;5046044;28;20203;-87
2022/02/27 07:12:48;;;;;;;9.40;5.28;;;1.40;99.90;;;;;;5047502;28;20210;-86
2022/02/27 07:15:15;;;;;;;11.75;5.35;;;1.50;99.90;;;;;;5043779;28;20297;-88
2022/02/27 07:17:42;;;;;;;8.88;5.20;;;1.50;99.90;;;;;;5044814;28;20207;-87
2022/02/27 07:20:10;;;;;;;10.23;5.68;;;1.50;99.90;;;;;;5045421;28;20265;-86
2022/02/27 07:22:37;;;;;;;9.68;4.40;;;1.70;99.90;;;;;;5046609;28;20294;-86
2022/02/27 07:25:06;;;;;;;10.05;5.45;;;1.80;99.90;;;;;;5051134;28;20223;-86
2022/02/27 07:27:33;;;;;;;10.30;5.85;;;1.90;99.90;;;;;;5046915;28;20218;-87
2022/02/27 07:30:01;;;;;;;11.15;5.18;;;1.80;99.90;;;;;;5044524;28;20249;-86
2022/02/27 07:32:28;;;;;;;17.85;7.70;;;1.90;99.90;;;;;;5045057;28;20225;-87
2022/02/27 07:34:56;;;;;;;10.38;6.15;;;2.00;99.90;;;;;;5044903;28;20241;-86
2022/02/27 07:37:23;;;;;;;15.43;6.28;;;2.10;99.90;;;;;;5044211;28;20501;-86
2022/02/27 07:39:49;;;;;;;10.82;5.68;;;2.30;99.90;;;;;;5043811;28;20687;-87
2022/02/27 07:42:16;;;;;;;11.25;5.70;;;2.10;99.90;;;;;;5045409;28;20251;-86
2022/02/27 07:44:43;;;;;;;14.23;5.85;;;2.20;99.90;;;;;;5044108;28;20206;-87
2022/02/27 07:47:11;;;;;;;13.25;7.15;;;2.30;99.90;;;;;;5044280;28;20221;-86
2022/02/27 07:49:39;;;;;;;14.30;6.03;;;2.40;99.90;;;;;;5044271;28;20218;-87
2022/02/27 07:52:07;;;;;;;10.70;6.50;;;2.30;99.90;;;;;;5044068;28;20318;-86
2022/02/27 07:54:34;;;;;;;9.75;5.85;;;2.40;99.90;;;;;;5046904;28;20257;-85
2022/02/27 07:57:00;;;;;;;12.77;6.93;;;2.60;99.90;;;;;;5050605;28;20213;-87
2022/02/27 07:59:27;;;;;;;11.25;6.10;;;2.80;99.90;;;;;;5045090;28;20223;-87
2022/02/27 08:01:54;;;;;;;15.10;7.05;;;2.70;99.90;;;;;;5045141;28;20231;-88
2022/02/27 08:04:22;;;;;;;11.40;5.63;;;2.70;99.90;;;;;;5044158;28;20733;-86
2022/02/27 08:06:49;;;;;;;12.52;7.40;;;2.90;99.90;;;;;;5044908;28;20671;-86
2022/02/27 08:09:16;;;;;;;14.50;7.88;;;3.00;99.90;;;;;;5045569;28;20280;-86
2022/02/27 08:11:43;;;;;;;17.40;7.70;;;3.10;99.90;;;;;;5050386;28;20246;-85
2022/02/27 08:14:10;;;;;;;15.98;8.40;;;3.20;99.90;;;;;;5047296;28;20207;-88
2022/02/27 08:16:37;;;;;;;13.10;7.32;;;3.30;99.90;;;;;;5043129;28;20207;-88
2022/02/27 08:19:04;;;;;;;13.90;7.63;;;3.60;99.90;;;;;;5043396;28;20233;-87
2022/02/27 08:21:32;;;;;;;12.13;6.93;;;3.80;99.90;;;;;;5042242;28;20219;-88
2022/02/27 08:23:59;;;;;;;12.80;7.32;;;3.80;99.90;;;;;;5044756;28;20211;-87
2022/02/27 08:26:26;;;;;;;17.90;7.15;;;4.00;99.90;;;;;;5044470;28;20231;-87
2022/02/27 08:28:53;;;;;;;17.55;7.40;;;4.00;99.90;;;;;;5045001;28;20210;-87
2022/02/27 08:31:20;;;;;;;11.18;6.63;;;4.20;99.90;;;;;;5052644;28;20209;-87
2022/02/27 08:33:47;;;;;;;13.00;6.30;;;4.30;99.90;;;;;;5045381;28;20212;-90
2022/02/27 08:36:15;;;;;;;12.15;6.60;;;4.20;99.90;;;;;;5044393;28;20217;-87
2022/02/27 08:38:47;;;;;;;13.23;6.35;;;4.30;99.90;;;;;;5049576;28;20203;-87
2022/02/27 08:41:14;;;;;;;10.35;5.55;;;4.00;99.90;;;;;;5053528;28;20223;-84
2022/02/27 08:43:41;;;;;;;11.23;5.90;;;4.10;99.90;;;;;;5057556;28;20216;-88
2022/02/27 08:46:08;;;;;;;12.63;5.80;;;4.60;99.90;;;;;;5057223;28;20242;-85
2022/02/27 08:48:35;;;;;;;14.90;6.22;;;4.40;99.90;;;;;;5050720;28;20210;-87
2022/02/27 08:51:02;;;;;;;10.20;6.75;;;4.30;99.90;;;;;;5072556;23;20235;-83
2022/02/27 08:53:29;;;;;;;9.68;5.70;;;4.70;99.90;;;;;;5020169;28;20208;-85
2022/02/27 08:55:57;;;;;;;14.93;4.30;;;4.70;99.90;;;;;;5017459;28;20213;-85
2022/02/27 08:58:24;;;;;;;9.00;5.35;;;4.90;99.90;;;;;;5018240;28;20276;-85
2022/02/27 09:00:51;;;;;;;6.50;3.20;;;5.00;99.90;;;;;;5017133;28;20230;-85
2022/02/27 09:03:17;;;;;;;12.77;6.57;;;5.30;99.90;;;;;;5017192;28;20762;-85
2022/02/27 09:05:44;;;;;;;8.73;5.05;;;5.30;99.90;;;;;;5018243;28;20205;-86
2022/02/27 09:08:11;;;;;;;9.73;5.85;;;5.30;99.90;;;;;;5019360;28;20223;-85
2022/02/27 09:10:38;;;;;;;9.55;5.00;;;5.60;99.90;;;;;;5030577;28;20228;-85
2022/02/27 09:13:06;;;;;;;10.38;5.28;;;5.40;99.90;;;;;;5028039;28;20237;-85
2022/02/27 09:15:33;;;;;;;8.55;4.45;;;5.40;99.90;;;;;;5016601;28;20217;-86
2022/02/27 09:18:00;;;;;;;9.15;4.93;;;5.70;99.90;;;;;;5020924;28;20640;-85
2022/02/27 09:20:27;;;;;;;13.18;5.30;;;5.90;99.90;;;;;;5026519;28;20226;-85
2022/02/27 09:22:54;;;;;;;10.88;5.60;;;5.80;99.90;;;;;;5024548;28;20241;-85
2022/02/27 09:25:21;;;;;;;10.55;5.82;;;5.70;99.90;;;;;;5026244;28;20241;-86
2022/02/27 09:27:48;;;;;;;8.45;5.45;;;5.90;99.90;;;;;;5025378;28;20242;-86
2022/02/27 09:30:17;;;;;;;9.20;4.82;;;5.90;99.90;;;;;;5024293;28;20213;-85
2022/02/27 09:32:44;;;;;;;8.40;4.93;;;5.50;99.90;;;;;;5028586;28;20317;-85
2022/02/27 09:35:11;;;;;;;8.15;5.30;;;5.50;99.90;;;;;;5023127;28;20300;-85
2022/02/27 09:37:39;;;;;;;9.13;4.82;;;6.10;99.90;;;;;;5022569;28;20210;-85
2022/02/27 09:40:07;;;;;;;6.78;3.28;;;6.10;99.90;;;;;;5025165;28;20702;-84
2022/02/27 09:42:35;;;;;;;8.95;5.10;;;6.00;99.90;;;;;;5024453;28;20257;-86
2022/02/27 09:45:03;;;;;;;10.90;5.20;;;5.70;99.90;;;;;;5024254;28;20216;-86
2022/02/27 09:47:31;;;;;;;11.70;5.03;;;6.30;99.90;;;;;;5022882;28;20270;-85
2022/02/27 09:49:58;;;;;;;7.13;4.57;;;6.10;99.90;;;;;;5021238;28;20264;-85
2022/02/27 09:52:25;;;;;;;9.63;4.80;;;6.20;99.90;;;;;;5021739;28;20326;-85
2022/02/27 09:54:52;;;;;;;5.43;2.83;;;6.40;99.90;;;;;;5021672;28;20206;-84
2022/02/27 09:57:20;;;;;;;5.80;2.90;;;6.50;99.90;;;;;;5022477;28;20202;-85
2022/02/27 09:59:48;;;;;;;6.80;3.40;;;6.30;99.90;;;;;;5022875;28;20583;-85
2022/02/27 10:02:15;;;;;;;10.30;3.35;;;6.80;99.90;;;;;;5038261;28;20281;-85
2022/02/27 10:04:45;;;;;;;6.63;4.05;;;6.70;99.30;;;;;;5036462;28;20211;-85
2022/02/27 10:07:14;;;;;;;6.15;4.00;;;6.50;99.10;;;;;;5023269;28;20214;-85
2022/02/27 10:09:42;;;;;;;9.60;4.05;;;6.60;97.80;;;;;;5023698;28;20273;-85
2022/02/27 10:12:20;;;;;;;7.65;3.92;;;6.80;97.80;;;;;;5034715;28;20214;-85
2022/02/27 10:14:59;;;;;;;6.30;4.15;;;6.80;97.10;;;;;;5031191;28;20653;-85
2022/02/27 10:17:30;;;;;;;9.02;4.05;;;7.20;96.80;;;;;;5027872;28;20277;-85
2022/02/27 10:19:59;;;;;;;16.40;5.53;;;7.00;96.50;;;;;;5020786;28;20220;-85
2022/02/27 10:22:30;;;;;;;5.90;3.70;;;6.90;96.80;;;;;;5020144;28;20236;-85
2022/02/27 10:24:57;;;;;;;5.65;2.65;;;7.10;96.70;;;;;;5023100;28;20205;-85
2022/02/27 10:27:24;;;;;;;7.22;2.63;;;7.00;96.40;;;;;;5020883;28;20218;-85
2022/02/27 10:29:51;;;;;;;7.75;3.35;;;6.60;96.30;;;;;;5022677;28;20210;-85
2022/02/27 10:32:27;;;;;;;6.60;3.50;;;7.00;96.60;;;;;;5026280;28;20229;-85
2022/02/27 10:34:54;;;;;;;5.45;2.70;;;6.80;96.70;;;;;;5026881;28;20238;-85
2022/02/27 10:37:23;;;;;;;7.60;4.00;;;6.90;96.70;;;;;;5024405;28;20694;-85
2022/02/27 10:39:51;;;;;;;7.10;4.25;;;6.80;96.80;;;;;;5028827;28;20211;-85
2022/02/27 10:42:20;;;;;;;7.05;3.65;;;6.90;96.70;;;;;;5029900;28;20237;-85
2022/02/27 10:44:53;;;;;;;7.15;2.75;;;7.40;96.60;;;;;;5026260;28;20249;-85
2022/02/27 10:47:22;;;;;;;6.75;3.90;;;7.30;95.70;;;;;;5025282;28;20205;-84
2022/02/27 10:49:51;;;;;;;7.95;3.65;;;7.30;95.10;;;;;;5023500;28;20274;-84
2022/02/27 10:52:22;;;;;;;6.70;3.90;;;7.40;94.50;;;;;;5037185;28;20226;-84
2022/02/27 10:54:50;;;;;;;6.50;3.78;;;7.60;94.20;;;;;;5023695;28;20278;-83
2022/02/27 10:57:29;;;;;;;7.07;3.95;;;7.30;92.70;;;;;;5018785;28;20215;-83
2022/02/27 11:00:01;;;;;;;6.72;3.30;;;7.50;92.80;;;;;;5020452;28;20219;-83
2022/02/27 11:02:30;;;;;;;6.18;3.30;;;7.30;92.70;;;;;;5020623;28;20226;-85
2022/02/27 11:04:58;;;;;;;6.30;4.13;;;7.40;93.00;;;;;;5019818;28;20607;-85
2022/02/27 11:07:27;;;;;;;6.68;3.15;;;7.60;93.00;;;;;;5019733;28;20233;-85
2022/02/27 11:09:54;;;;;;;6.78;3.80;;;7.50;91.50;;;;;;5019159;28;20215;-85
2022/02/27 11:12:21;;;;;;;5.43;2.90;;;7.60;91.10;;;;;;5020435;28;20254;-83
2022/02/27 11:14:48;;;;;;;4.13;1.73;;;7.80;90.70;;;;;;5019481;28;20234;-84
2022/02/27 11:17:16;;;;;;;7.25;3.50;;;8.00;89.70;;;;;;5021948;28;20207;-84
2022/02/27 11:19:44;;;;;;;3.88;1.58;;;7.90;88.80;;;;;;5026113;28;20235;-84
2022/02/27 11:22:12;;;;;;;3.70;2.33;;;7.90;86.70;;;;;;5021252;28;20234;-86
2022/02/27 11:24:42;;;;;;;5.90;3.60;;;7.80;86.60;;;;;;5021987;28;20211;-84
2022/02/27 11:27:10;;;;;;;5.97;3.67;;;7.60;87.00;;;;;;5023863;28;20202;-84
2022/02/27 11:29:37;;;;;;;4.82;2.95;;;7.50;87.70;;;;;;5020412;28;20554;-84
2022/02/27 11:32:05;;;;;;;6.85;3.33;;;7.70;87.00;;;;;;5021835;28;20253;-84
2022/02/27 11:34:40;;;;;;;4.38;2.15;;;7.30;85.80;;;;;;5020305;28;20204;-84
2022/02/27 11:37:07;;;;;;;5.00;3.20;;;7.70;86.00;;;;;;5018372;28;20190;-84
2022/02/27 11:42:50;;;;;;;6.22;3.13;;;7.90;84.30;;;;;;5020030;28;20239;-84
2022/02/27 11:45:22;;;;;;;5.43;2.70;;;7.90;84.30;;;;;;5020239;28;20274;-84
2022/02/27 11:47:49;;;;;;;7.38;3.42;;;8.10;84.00;;;;;;5033687;28;20205;-84
2022/02/27 11:50:26;;;;;;;6.30;3.92;;;7.90;83.20;;;;;;5024708;28;20222;-84
2022/02/27 11:52:55;;;;;;;4.97;2.60;;;7.80;81.70;;;;;;5026838;28;20284;-84
2022/02/27 11:55:41;;;;;;;5.13;3.13;;;7.90;82.50;;;;;;5031353;28;20218;-84
2022/02/27 11:58:19;;;;;;;7.68;4.00;;;8.10;82.90;;;;;;5030180;28;20182;-83
2022/02/27 12:00:46;;;;;;;6.00;3.35;;;8.00;82.80;;;;;;5031938;28;20211;-84
2022/02/27 12:03:40;;;;;;;4.97;3.17;;;8.00;83.40;;;;;;5031608;28;20191;-86
2022/02/27 12:06:09;;;;;;;7.05;3.50;;;7.90;83.10;;;;;;5010708;28;20214;-84
2022/02/27 12:08:43;;;;;;;5.68;3.60;;;7.90;83.00;;;;;;5022564;28;20210;-84
2022/02/27 12:11:38;;;;;;;7.50;3.50;;;7.90;83.90;;;;;;5021042;28;20255;-84
2022/02/27 12:14:07;;;;;;;6.13;3.40;;;8.00;84.40;;;;;;5021068;28;20210;-84
2022/02/27 12:16:36;;;;;;;7.72;4.05;;;7.90;84.90;;;;;;5021187;28;20203;-85
2022/02/27 12:19:04;;;;;;;6.43;3.33;;;7.80;85.00;;;;;;5021028;28;20199;-84
2022/02/27 12:21:36;;;;;;;8.80;3.80;;;8.20;84.90;;;;;;5022024;28;20295;-84
2022/02/27 12:24:08;;;;;;;5.30;3.50;;;8.20;84.80;;;;;;5023552;28;20202;-84
2022/02/27 12:26:54;;;;;;;5.97;3.05;;;8.30;85.40;;;;;;5021876;28;20235;-83
2022/02/27 12:29:36;;;;;;;7.75;4.00;;;8.30;85.90;;;;;;5022675;28;20234;-84
2022/02/27 12:32:18;;;;;;;6.78;3.97;;;8.30;86.50;;;;;;5022751;28;20226;-84
2022/02/27 12:34:47;;;;;;;9.38;4.97;;;8.40;86.30;;;;;;5036708;28;20191;-85
2022/02/27 12:37:17;;;;;;;6.60;3.60;;;8.20;85.70;;;;;;5021293;28;20608;-85
2022/02/27 12:39:45;;;;;;;8.15;3.95;;;8.20;86.10;;;;;;5020272;28;20557;-85
2022/02/27 12:42:15;;;;;;;6.75;3.30;;;8.20;85.40;;;;;;5020913;28;20236;-85
2022/02/27 12:44:45;;;;;;;5.50;3.27;;;8.20;84.00;;;;;;5024136;28;20211;-85
2022/02/27 12:47:15;;;;;;;5.28;2.95;;;8.20;82.90;;;;;;5022372;28;20534;-84
2022/02/27 12:52:29;;;;;;;4.63;2.85;;;8.40;81.50;;;;;;5023369;28;20281;-86
2022/02/27 12:54:57;;;;;;;7.17;3.97;;;8.50;80.00;;;;;;5026477;28;20218;-86
2022/02/27 12:57:25;;;;;;;6.87;3.50;;;8.40;79.60;;;;;;5028467;28;20549;-84
2022/02/27 12:59:56;;;;;;;5.05;3.33;;;8.50;80.00;;;;;;5034048;28;20434;-85
2022/02/27 13:02:25;;;;;;;5.18;2.95;;;8.40;80.60;;;;;;5036443;28;20303;-85